createdAt,value
2022-12-24T00:00:13.544Z,1.43
2022-12-24T00:03:56.420Z,0.90
2022-12-24T00:07:39.105Z,2.70
2022-12-24T00:11:22.123Z,1.00
2022-12-24T00:15:05.699Z,1.30
2022-12-24T00:18:49.773Z,2.13
2022-12-24T00:22:32.450Z,1.37
2022-12-24T00:26:15.897Z,1.00
2022-12-24T00:29:58.618Z,1.27
2022-12-24T00:33:41.347Z,0.87
2022-12-24T00:37:25.401Z,0.83
2022-12-24T00:41:24.628Z,1.23
2022-12-24T00:45:09.005Z,1.07
2022-12-24T00:48:51.714Z,1.27
2022-12-24T00:52:36.056Z,1.20
2022-12-24T00:56:18.956Z,0.77
2022-12-24T01:00:01.683Z,1.43
2022-12-24T01:03:44.595Z,1.47
2022-12-24T01:07:27.363Z,1.20
2022-12-24T01:11:12.319Z,0.70
2022-12-24T01:14:57.223Z,1.40
2022-12-24T01:18:40.038Z,0.90
2022-12-24T01:22:22.759Z,1.53
2022-12-24T01:26:06.355Z,1.17
2022-12-24T01:29:50.495Z,1.13
2022-12-24T01:33:33.159Z,1.33
2022-12-24T01:37:15.882Z,1.80
2022-12-24T01:41:18.559Z,1.20
2022-12-24T01:45:36.089Z,1.50
2022-12-24T01:49:19.028Z,1.43
2022-12-24T01:53:01.743Z,1.80
2022-12-24T01:56:46.590Z,2.63
2022-12-24T02:00:29.461Z,1.33
2022-12-24T02:04:18.737Z,1.77
2022-12-24T02:08:02.080Z,1.33
2022-12-24T02:11:45.161Z,2.90
2022-12-24T02:15:31.946Z,0.90
2022-12-24T02:19:51.279Z,3.43
2022-12-24T02:23:56.191Z,2.37
2022-12-24T02:27:48.348Z,1.57
2022-12-24T02:31:38.523Z,5.23
2022-12-24T02:35:24.469Z,2.10
2022-12-24T02:39:10.137Z,1.53
2022-12-24T02:42:57.718Z,2.73
2022-12-24T02:46:41.932Z,4.00
2022-12-24T02:50:25.487Z,4.03
2022-12-24T02:54:08.384Z,3.20
2022-12-24T02:58:09.378Z,2.23
2022-12-24T03:01:59.184Z,2.63
2022-12-24T03:05:46.762Z,2.93
2022-12-24T03:09:33.672Z,2.60
2022-12-24T03:13:18.025Z,1.07
2022-12-24T03:17:04.062Z,3.10
2022-12-24T03:20:50.504Z,1.77
2022-12-24T03:24:33.192Z,4.60
2022-12-24T03:28:17.591Z,2.30
2022-12-24T03:32:04.128Z,1.93
2022-12-24T03:35:47.123Z,3.33
2022-12-24T03:39:29.872Z,4.50
2022-12-24T03:43:12.702Z,2.37
2022-12-24T03:46:55.397Z,2.40
2022-12-24T03:50:39.473Z,4.13
2022-12-24T03:54:22.279Z,2.10
2022-12-24T03:58:04.989Z,1.63
2022-12-24T04:01:47.920Z,1.60
2022-12-24T04:05:30.809Z,2.00
2022-12-24T04:09:14.848Z,1.87
2022-12-24T04:12:57.530Z,4.13
2022-12-24T04:16:40.257Z,1.57
2022-12-24T04:20:23.026Z,1.63
2022-12-24T04:24:06.429Z,4.50
2022-12-24T04:27:50.487Z,2.33
2022-12-24T04:31:33.279Z,4.17
2022-12-24T04:35:16.069Z,2.37
2022-12-24T04:38:58.778Z,2.57
2022-12-24T04:42:41.449Z,3.47
2022-12-24T04:46:27.661Z,1.83
2022-12-24T04:50:11.485Z,3.90
2022-12-24T04:53:54.714Z,8.50
2022-12-24T04:57:38.010Z,1.70
2022-12-24T05:01:22.382Z,1.67
2022-12-24T05:05:07.369Z,0.90
2022-12-24T05:08:50.446Z,1.60
2022-12-24T05:12:33.166Z,1.40
2022-12-24T05:16:16.823Z,1.90
2022-12-24T05:19:59.587Z,1.57
2022-12-24T05:24:01.123Z,2.23
2022-12-24T05:27:50.730Z,3.23
2022-12-24T05:31:34.487Z,2.70
2022-12-24T05:35:17.344Z,1.20
2022-12-24T05:39:01.615Z,2.70
2022-12-24T05:42:44.296Z,2.77
2022-12-24T05:46:27.442Z,2.73
2022-12-24T05:50:11.535Z,2.53
2022-12-24T05:53:54.277Z,6.03
2022-12-24T05:57:38.393Z,4.13
2022-12-24T06:01:21.830Z,1.87
2022-12-24T06:05:04.836Z,3.33
2022-12-24T06:08:51.301Z,1.53
2022-12-24T06:12:34.007Z,3.43
2022-12-24T06:16:19.938Z,2.77
2022-12-24T06:20:02.770Z,1.20
2022-12-24T06:23:46.396Z,2.93
2022-12-24T06:27:29.156Z,1.73
2022-12-24T06:31:13.626Z,1.97
2022-12-24T06:34:57.894Z,1.73
2022-12-24T06:38:40.531Z,3.03
2022-12-24T06:42:24.370Z,1.97
2022-12-24T06:46:07.163Z,1.43
2022-12-24T06:49:49.897Z,1.43
2022-12-24T06:53:34.081Z,0.70
2022-12-24T06:57:16.800Z,0.90
2022-12-24T07:00:59.526Z,2.27
2022-12-24T07:04:42.228Z,0.73
2022-12-24T07:08:25.072Z,1.03
2022-12-24T07:12:09.205Z,1.07
2022-12-24T07:15:58.303Z,1.10
2022-12-24T07:19:41.006Z,1.17
2022-12-24T07:23:23.804Z,1.33
2022-12-24T07:27:06.598Z,1.07
2022-12-24T07:30:50.813Z,1.83
2022-12-24T07:34:33.571Z,0.73
2022-12-24T07:38:16.270Z,1.37
2022-12-24T07:41:59.008Z,1.77
2022-12-24T07:45:41.765Z,1.27
2022-12-24T07:49:25.850Z,2.57
2022-12-24T07:53:08.563Z,3.23
2022-12-24T07:56:51.356Z,1.37
2022-12-24T08:00:34.117Z,4.30
2022-12-24T08:04:16.855Z,1.57
2022-12-24T08:08:00.924Z,3.43
2022-12-24T08:11:49.881Z,1.40
2022-12-24T08:15:35.932Z,2.20
2022-12-24T08:19:18.843Z,1.63
2022-12-24T08:23:02.977Z,2.13
2022-12-24T08:26:45.700Z,1.27
2022-12-24T08:30:28.449Z,1.17
2022-12-24T08:34:12.273Z,0.97
2022-12-24T08:37:55.031Z,0.80
2022-12-24T08:41:39.082Z,2.50
2022-12-24T08:45:22.052Z,1.30
2022-12-24T08:49:04.743Z,1.70
2022-12-24T08:52:47.440Z,1.90
2022-12-24T08:56:30.152Z,1.93
2022-12-24T09:00:15.468Z,2.23
2022-12-24T09:03:58.152Z,4.47
2022-12-24T09:07:40.864Z,2.03
2022-12-24T09:11:23.749Z,0.93
2022-12-24T09:15:08.223Z,1.83
2022-12-24T09:18:52.566Z,1.70
2022-12-24T09:22:35.878Z,3.10
2022-12-24T09:26:20.848Z,1.43
2022-12-24T09:30:04.439Z,2.47
2022-12-24T09:33:48.806Z,3.53
2022-12-24T09:37:32.892Z,1.73
2022-12-24T09:41:22.036Z,1.60
2022-12-24T09:45:08.908Z,2.50
2022-12-24T09:48:54.412Z,2.93
2022-12-24T09:52:42.363Z,1.43
2022-12-24T09:56:28.496Z,2.67
2022-12-24T10:00:18.419Z,1.70
2022-12-24T10:04:03.426Z,3.80
2022-12-24T10:07:52.342Z,1.47
2022-12-24T10:11:44.542Z,1.90
2022-12-24T10:15:30.429Z,1.43
2022-12-24T10:19:17.030Z,1.50
2022-12-24T10:23:04.594Z,2.17
2022-12-24T10:26:49.824Z,2.30
2022-12-24T10:30:32.803Z,1.63
2022-12-24T10:34:19.744Z,1.70
2022-12-24T10:38:04.476Z,1.77
2022-12-24T10:41:47.683Z,3.07
2022-12-24T10:45:37.695Z,4.83
2022-12-24T10:49:29.594Z,1.80
2022-12-24T10:53:19.713Z,3.07
2022-12-24T10:57:03.551Z,4.27
2022-12-24T11:00:50.898Z,2.00
2022-12-24T11:04:37.561Z,3.67
2022-12-24T11:08:21.674Z,4.70
2022-12-24T11:12:09.258Z,2.83
2022-12-24T11:16:01.297Z,3.17
2022-12-24T11:19:48.641Z,3.33
2022-12-24T11:23:32.905Z,3.47
2022-12-24T11:27:31.961Z,3.00
2022-12-24T11:31:20.472Z,3.03
2022-12-24T11:35:07.697Z,2.43
2022-12-24T11:38:55.887Z,2.37
2022-12-24T11:42:41.837Z,1.97
2022-12-24T11:46:38.489Z,2.17
2022-12-24T11:50:24.225Z,1.53
2022-12-24T11:54:11.360Z,2.37
2022-12-24T11:57:58.503Z,2.90
2022-12-24T12:01:49.798Z,2.97
2022-12-24T12:05:34.526Z,1.47
2022-12-24T12:09:22.753Z,2.40
2022-12-24T12:13:14.665Z,2.20
2022-12-24T12:17:03.965Z,1.43
2022-12-24T12:20:49.002Z,3.10
2022-12-24T12:24:37.358Z,1.37
2022-12-24T12:28:23.534Z,3.60
2022-12-24T12:32:09.079Z,2.93
2022-12-24T12:35:52.660Z,1.40
2022-12-24T12:39:37.413Z,3.77
2022-12-24T12:43:29.127Z,3.50
2022-12-24T12:47:25.631Z,2.23
2022-12-24T12:51:16.599Z,5.33
2022-12-24T12:55:09.329Z,1.63
2022-12-24T12:58:54.994Z,3.80
2022-12-24T13:03:01.051Z,4.33
2022-12-24T13:07:10.269Z,2.83
2022-12-24T13:11:16.286Z,2.10
2022-12-24T13:15:08.941Z,3.40
2022-12-24T13:19:02.844Z,2.40
2022-12-24T13:22:50.626Z,4.10
2022-12-24T13:26:37.421Z,2.40
2022-12-24T13:30:36.517Z,2.97
2022-12-24T13:34:35.412Z,1.73
2022-12-24T13:38:36.472Z,3.53
2022-12-24T13:42:51.517Z,4.07
2022-12-24T13:46:58.963Z,2.67
2022-12-24T13:50:45.727Z,5.23
2022-12-24T13:54:28.896Z,2.47
2022-12-24T13:58:20.600Z,2.13
2022-12-24T14:02:03.989Z,5.40
2022-12-24T14:05:48.697Z,5.07
2022-12-24T14:09:32.283Z,3.20
2022-12-24T14:13:56.692Z,3.37
2022-12-24T14:17:40.485Z,2.50
2022-12-24T14:21:24.923Z,1.63
2022-12-24T14:25:16.426Z,2.23
2022-12-24T14:29:03.276Z,4.60
2022-12-24T14:32:46.714Z,2.50
2022-12-24T14:36:29.435Z,4.50
2022-12-24T14:40:17.010Z,2.30
2022-12-24T14:44:09.331Z,4.33
2022-12-24T14:47:57.741Z,2.17
2022-12-24T14:51:44.800Z,6.77
2022-12-24T14:55:37.819Z,3.77
2022-12-24T14:59:21.840Z,2.93
2022-12-24T15:03:04.606Z,2.17
2022-12-24T15:06:49.447Z,3.80
2022-12-24T15:10:34.601Z,2.10
2022-12-24T15:14:18.461Z,5.23
2022-12-24T15:18:03.293Z,4.37
2022-12-24T15:21:46.060Z,1.47
2022-12-24T15:25:30.911Z,2.60
2022-12-24T15:29:20.660Z,2.17
2022-12-24T15:33:05.282Z,4.27
2022-12-24T15:36:48.110Z,2.10
2022-12-24T15:40:33.242Z,2.93
2022-12-24T15:44:17.009Z,3.60
2022-12-24T15:48:01.861Z,3.13
2022-12-24T15:51:45.981Z,3.70
2022-12-24T15:55:30.655Z,4.80
2022-12-24T15:59:31.422Z,4.63
2022-12-24T16:03:20.289Z,4.33
2022-12-24T16:07:06.776Z,2.67
2022-12-24T16:10:51.004Z,3.57
2022-12-24T16:14:34.423Z,2.97
2022-12-24T16:18:18.848Z,2.30
2022-12-24T16:22:24.226Z,3.93
2022-12-24T16:26:07.159Z,2.47
2022-12-24T16:29:50.320Z,3.40
2022-12-24T16:33:33.092Z,1.87
2022-12-24T16:37:17.238Z,3.97
2022-12-24T16:41:00.030Z,3.00
2022-12-24T16:44:42.211Z,4.00
2022-12-24T16:48:26.362Z,4.80
2022-12-24T16:52:17.690Z,3.80
2022-12-24T16:56:00.483Z,3.43
2022-12-24T16:59:43.229Z,4.67
2022-12-24T17:03:26.034Z,3.63
2022-12-24T17:07:09.178Z,5.83
2022-12-24T17:10:53.497Z,6.47
2022-12-24T17:14:36.407Z,5.63
2022-12-24T17:18:19.111Z,5.17
2022-12-24T17:22:01.859Z,3.50
2022-12-24T17:25:44.647Z,4.60
2022-12-24T17:29:28.725Z,5.17
2022-12-24T17:33:14.952Z,5.73
2022-12-24T17:36:58.180Z,4.30
2022-12-24T17:40:40.942Z,4.90
2022-12-24T17:44:23.787Z,3.73
2022-12-24T17:48:08.003Z,4.97
2022-12-24T17:51:51.464Z,5.13
2022-12-24T17:55:34.157Z,13.33
2022-12-24T17:59:16.994Z,7.73
2022-12-24T18:02:59.861Z,7.17
2022-12-24T18:06:49.005Z,6.07
2022-12-24T18:10:32.384Z,4.13
2022-12-24T18:14:15.345Z,4.73
2022-12-24T18:17:59.315Z,5.90
2022-12-24T18:21:42.113Z,5.03
2022-12-24T18:25:26.143Z,4.20
2022-12-24T18:29:09.711Z,4.27
2022-12-24T18:32:52.458Z,3.97
2022-12-24T18:36:35.269Z,5.63
2022-12-24T18:40:18.157Z,14.73
2022-12-24T18:44:02.268Z,11.63
2022-12-24T18:47:44.977Z,6.33
2022-12-24T18:51:30.331Z,13.57
2022-12-24T18:55:13.240Z,6.33
2022-12-24T18:58:57.194Z,6.73
2022-12-24T19:02:41.332Z,4.30
2022-12-24T19:06:24.451Z,5.90
2022-12-24T19:10:08.189Z,5.80
2022-12-24T19:13:52.769Z,7.10
2022-12-24T19:17:35.464Z,5.03
2022-12-24T19:21:19.548Z,5.47
2022-12-24T19:25:02.310Z,6.80
2022-12-24T19:28:45.317Z,5.33
2022-12-24T19:32:27.975Z,5.87
2022-12-24T19:36:12.580Z,6.07
2022-12-24T19:39:56.606Z,8.03
2022-12-24T19:43:41.161Z,6.60
2022-12-24T19:47:23.789Z,5.53
2022-12-24T19:51:07.945Z,11.07
2022-12-24T19:54:50.687Z,7.63
2022-12-24T19:58:35.665Z,6.57
2022-12-24T20:02:18.577Z,5.43
2022-12-24T20:06:01.441Z,7.47
2022-12-24T20:09:44.194Z,7.53
2022-12-24T20:13:26.857Z,9.77
2022-12-24T20:17:11.253Z,10.20
2022-12-24T20:20:53.925Z,5.53
2022-12-24T20:24:36.640Z,4.50
2022-12-24T20:28:19.274Z,3.67
2022-12-24T20:32:02.033Z,3.33
2022-12-24T20:35:46.090Z,3.03
2022-12-24T20:39:28.784Z,4.10
2022-12-24T20:43:11.770Z,4.57
2022-12-24T20:46:54.549Z,6.63
2022-12-24T20:50:41.266Z,5.73
2022-12-24T20:54:25.326Z,7.77
2022-12-24T20:58:08.096Z,6.47
2022-12-24T21:01:52.092Z,5.43
2022-12-24T21:05:34.891Z,5.47
2022-12-24T21:09:17.588Z,4.53
2022-12-24T21:13:01.707Z,4.53
2022-12-24T21:16:44.662Z,5.47
2022-12-24T21:20:30.714Z,5.20
2022-12-24T21:24:14.024Z,5.50
2022-12-24T21:27:56.745Z,6.17
2022-12-24T21:31:40.741Z,7.10
2022-12-24T21:35:23.464Z,5.13
2022-12-24T21:39:06.180Z,7.30
2022-12-24T21:42:48.897Z,8.43
2022-12-24T21:46:31.682Z,5.93
2022-12-24T21:50:33.148Z,7.60
2022-12-24T21:54:27.160Z,6.83
2022-12-24T21:58:09.902Z,6.30
2022-12-24T22:01:52.767Z,7.30
2022-12-24T22:05:36.927Z,6.53
2022-12-24T22:09:37.011Z,7.53
2022-12-24T22:13:20.137Z,6.07
2022-12-24T22:17:02.831Z,8.50
2022-12-24T22:20:47.451Z,6.07
2022-12-24T22:24:30.103Z,6.20
2022-12-24T22:28:13.255Z,5.87
2022-12-24T22:31:55.964Z,4.37
2022-12-24T22:35:39.498Z,6.00
2022-12-24T22:39:23.864Z,3.50
2022-12-24T22:43:06.699Z,4.73
2022-12-24T22:46:49.434Z,4.37
2022-12-24T22:50:32.093Z,4.60
2022-12-24T22:54:14.799Z,5.93
2022-12-24T22:57:58.879Z,6.80
2022-12-24T23:01:43.097Z,7.00
2022-12-24T23:05:26.009Z,8.13
2022-12-24T23:09:10.369Z,9.07
2022-12-24T23:13:14.765Z,8.67
2022-12-24T23:16:59.483Z,8.93
2022-12-24T23:20:46.382Z,8.53
2022-12-24T23:24:29.465Z,7.80
2022-12-24T23:28:12.348Z,8.70
2022-12-24T23:31:55.375Z,7.80
2022-12-24T23:35:39.429Z,8.10
2022-12-24T23:39:22.309Z,7.87
2022-12-24T23:43:05.444Z,8.07
2022-12-24T23:46:48.123Z,4.77
2022-12-24T23:50:30.797Z,6.00
2022-12-24T23:54:15.203Z,6.53
2022-12-24T23:57:57.902Z,5.63
